createdAt,value
2017-09-09T00:00:37.877Z,0
2017-09-09T00:01:38.530Z,0
2017-09-09T00:02:39.184Z,0
2017-09-09T00:03:39.868Z,0
2017-09-09T00:04:40.524Z,0
2017-09-09T00:05:41.180Z,0
2017-09-09T00:06:41.832Z,0
2017-09-09T00:07:42.484Z,0
2017-09-09T00:08:43.170Z,0
2017-09-09T00:09:43.828Z,0
2017-09-09T00:10:44.507Z,0
2017-09-09T00:11:45.195Z,0
2017-09-09T00:12:45.847Z,0
2017-09-09T00:13:46.500Z,0
2017-09-09T00:14:47.153Z,0
2017-09-09T00:15:47.805Z,0
2017-09-09T00:16:48.486Z,0
2017-09-09T00:17:49.169Z,0
2017-09-09T00:18:49.826Z,0
2017-09-09T00:19:50.476Z,0
2017-09-09T00:20:51.130Z,0
2017-09-09T00:21:51.811Z,0
2017-09-09T00:22:52.432Z,0
2017-09-09T00:23:53.089Z,0
2017-09-09T00:24:53.737Z,0
2017-09-09T00:25:54.392Z,0
2017-09-09T00:26:55.047Z,0
2017-09-09T00:27:55.703Z,0
2017-09-09T00:28:56.354Z,0
2017-09-09T00:29:57.009Z,0
2017-09-09T00:30:57.689Z,0
2017-09-09T00:31:58.342Z,0
2017-09-09T00:32:58.997Z,0
2017-09-09T00:33:59.650Z,0
2017-09-09T00:35:00.302Z,0
2017-09-09T00:36:00.957Z,0
2017-09-09T00:37:01.609Z,0
2017-09-09T00:38:02.263Z,0
2017-09-09T00:39:02.918Z,0
2017-09-09T00:40:03.572Z,0
2017-09-09T00:41:04.251Z,0
2017-09-09T00:42:04.906Z,0
2017-09-09T00:43:05.561Z,0
2017-09-09T00:44:06.211Z,0
2017-09-09T00:45:06.863Z,0
2017-09-09T00:46:07.514Z,0
2017-09-09T00:47:08.168Z,0
2017-09-09T00:48:08.824Z,0
2017-09-09T00:49:09.474Z,0
2017-09-09T00:50:10.131Z,0
2017-09-09T00:51:10.784Z,0
2017-09-09T00:52:11.435Z,0
2017-09-09T00:53:12.087Z,0
2017-09-09T00:54:12.743Z,0
2017-09-09T00:55:13.398Z,0
2017-09-09T00:56:14.046Z,0
2017-09-09T00:57:14.697Z,0
2017-09-09T00:58:15.352Z,0
2017-09-09T00:59:16.032Z,0
2017-09-09T01:00:16.685Z,0
2017-09-09T01:01:17.343Z,0
2017-09-09T01:02:18.026Z,0
2017-09-09T01:03:18.681Z,0
2017-09-09T01:04:19.331Z,0
2017-09-09T01:05:19.987Z,0
2017-09-09T01:06:20.636Z,0
2017-09-09T01:07:21.291Z,0
2017-09-09T01:08:21.973Z,0
2017-09-09T01:09:22.628Z,0
2017-09-09T01:10:23.282Z,0
2017-09-09T01:11:23.938Z,0
2017-09-09T01:12:24.586Z,0
2017-09-09T01:13:25.239Z,0
2017-09-09T01:14:25.892Z,0
2017-09-09T01:15:26.546Z,0
2017-09-09T01:16:27.201Z,0
2017-09-09T01:17:27.852Z,0
2017-09-09T01:18:28.510Z,0
2017-09-09T01:19:29.190Z,0
2017-09-09T01:20:29.848Z,0
2017-09-09T01:21:30.499Z,0
2017-09-09T01:22:31.150Z,0
2017-09-09T01:23:31.806Z,0
2017-09-09T01:24:32.458Z,0
2017-09-09T01:25:33.115Z,0
2017-09-09T01:26:33.823Z,0
2017-09-09T01:27:34.452Z,0
2017-09-09T01:28:35.104Z,0
2017-09-09T01:29:35.767Z,0
2017-09-09T01:30:36.409Z,0
2017-09-09T01:31:37.061Z,0
2017-09-09T01:32:37.716Z,0
2017-09-09T01:33:38.370Z,0
2017-09-09T01:34:39.020Z,0
2017-09-09T01:35:39.678Z,0
2017-09-09T01:36:40.327Z,0
2017-09-09T01:37:40.982Z,0
2017-09-09T01:38:41.666Z,0
2017-09-09T01:39:42.320Z,0
2017-09-09T01:40:42.977Z,0
2017-09-09T01:41:43.660Z,0
2017-09-09T01:42:44.339Z,0
2017-09-09T01:43:44.994Z,0
2017-09-09T01:44:45.644Z,0
2017-09-09T01:45:46.304Z,0
2017-09-09T01:46:46.958Z,0
2017-09-09T01:47:47.611Z,0
2017-09-09T01:48:48.258Z,0
2017-09-09T01:49:48.911Z,0
2017-09-09T01:50:49.565Z,0
2017-09-09T01:51:50.218Z,0
2017-09-09T01:52:50.872Z,0
2017-09-09T01:53:51.526Z,0
2017-09-09T01:54:52.184Z,0
2017-09-09T01:55:52.839Z,0
2017-09-09T01:56:53.490Z,0
2017-09-09T01:57:54.144Z,0
2017-09-09T01:58:54.828Z,0
2017-09-09T01:59:55.484Z,0
2017-09-09T02:00:56.139Z,0
2017-09-09T02:01:56.792Z,0
2017-09-09T02:02:57.447Z,0
2017-09-09T02:03:58.099Z,0
2017-09-09T02:04:58.752Z,0
2017-09-09T02:05:59.405Z,0
2017-09-09T02:07:00.058Z,0
2017-09-09T02:08:00.742Z,0
2017-09-09T02:09:01.396Z,0
2017-09-09T02:10:02.050Z,0
2017-09-09T02:11:02.709Z,0
2017-09-09T02:12:03.359Z,0
2017-09-09T02:13:04.010Z,0
2017-09-09T02:14:04.692Z,0
2017-09-09T02:15:05.348Z,0
2017-09-09T02:16:06.006Z,0
2017-09-09T02:17:06.689Z,0
2017-09-09T02:18:07.370Z,0
2017-09-09T02:19:08.025Z,0
2017-09-09T02:20:08.676Z,0
2017-09-09T02:21:09.332Z,0
2017-09-09T02:22:10.006Z,0
2017-09-09T02:23:10.666Z,0
2017-09-09T02:24:11.319Z,0
2017-09-09T02:25:11.973Z,0
2017-09-09T02:26:12.627Z,0
2017-09-09T02:27:13.280Z,0
2017-09-09T02:28:13.937Z,0
2017-09-09T02:29:14.587Z,0
2017-09-09T02:30:15.240Z,0
2017-09-09T02:31:15.897Z,0
2017-09-09T02:32:16.572Z,0
2017-09-09T02:33:17.228Z,0
2017-09-09T02:34:17.887Z,0
2017-09-09T02:35:18.540Z,0
2017-09-09T02:36:19.220Z,0
2017-09-09T02:37:19.871Z,0
2017-09-09T02:38:20.529Z,0
2017-09-09T02:39:21.212Z,0
2017-09-09T02:40:21.869Z,0
2017-09-09T02:41:22.547Z,0
2017-09-09T02:42:23.205Z,0
2017-09-09T02:43:23.859Z,0
2017-09-09T02:44:24.511Z,0
2017-09-09T02:45:25.170Z,0
2017-09-09T02:46:25.820Z,0
2017-09-09T02:47:26.475Z,0
2017-09-09T02:48:27.130Z,0
2017-09-09T02:49:27.782Z,0
2017-09-09T02:50:28.434Z,0
2017-09-09T02:51:29.087Z,0
2017-09-09T02:52:29.741Z,0
2017-09-09T02:53:30.397Z,0
2017-09-09T02:54:31.047Z,0
2017-09-09T02:55:31.703Z,0
2017-09-09T02:56:32.356Z,0
2017-09-09T02:57:33.006Z,0
2017-09-09T02:58:33.691Z,0
2017-09-09T02:59:34.341Z,0
2017-09-09T03:00:34.994Z,0
2017-09-09T03:01:35.649Z,0
2017-09-09T03:02:36.303Z,0
2017-09-09T03:03:36.957Z,0
2017-09-09T03:04:37.622Z,0
2017-09-09T03:05:38.261Z,0
2017-09-09T03:06:38.920Z,0
2017-09-09T03:07:39.574Z,0
2017-09-09T03:08:40.223Z,0
2017-09-09T03:09:40.875Z,0
2017-09-09T03:10:41.527Z,0
2017-09-09T03:11:42.181Z,0
2017-09-09T03:12:42.862Z,0
2017-09-09T03:13:43.510Z,0
2017-09-09T03:14:44.167Z,0
2017-09-09T03:15:44.817Z,0
2017-09-09T03:16:45.473Z,0
2017-09-09T03:17:46.124Z,0
2017-09-09T03:18:46.778Z,0
2017-09-09T03:19:47.432Z,0
2017-09-09T03:20:48.083Z,0
2017-09-09T03:21:48.737Z,0
2017-09-09T03:22:49.390Z,0
2017-09-09T03:23:50.046Z,0
2017-09-09T03:24:50.697Z,0
2017-09-09T03:25:51.349Z,0
2017-09-09T03:26:52.030Z,0
2017-09-09T03:27:52.681Z,0
2017-09-09T03:28:53.341Z,0
2017-09-09T03:29:53.987Z,0
2017-09-09T03:30:54.643Z,0
2017-09-09T03:31:55.328Z,0
2017-09-09T03:32:55.979Z,0
2017-09-09T03:33:56.629Z,0
2017-09-09T03:34:57.316Z,0
2017-09-09T03:35:57.969Z,0
2017-09-09T03:36:58.626Z,0
2017-09-09T03:37:59.278Z,0
2017-09-09T03:38:59.930Z,0
2017-09-09T03:40:00.586Z,0
2017-09-09T03:41:01.268Z,0
2017-09-09T03:42:01.921Z,0
2017-09-09T03:43:02.577Z,0
2017-09-09T03:44:03.229Z,0
2017-09-09T03:45:03.880Z,0
2017-09-09T03:46:04.536Z,0
2017-09-09T03:47:05.187Z,0
2017-09-09T03:48:05.840Z,0
2017-09-09T03:49:06.491Z,0
2017-09-09T03:50:07.146Z,0
2017-09-09T03:51:07.794Z,0
2017-09-09T03:52:08.449Z,0
2017-09-09T03:53:09.098Z,0
2017-09-09T03:54:09.749Z,0
2017-09-09T03:55:10.399Z,0
2017-09-09T03:56:11.054Z,0
2017-09-09T03:57:11.733Z,0
2017-09-09T03:58:12.388Z,0
2017-09-09T03:59:13.041Z,0
2017-09-09T04:00:13.697Z,0
2017-09-09T04:01:14.346Z,0
2017-09-09T04:02:14.998Z,0
2017-09-09T04:03:15.654Z,0
2017-09-09T04:04:16.338Z,0
2017-09-09T04:05:16.991Z,0
2017-09-09T04:06:17.664Z,0
2017-09-09T04:07:18.298Z,0
2017-09-09T04:08:18.952Z,0
2017-09-09T04:09:19.605Z,0
2017-09-09T04:10:20.262Z,0
2017-09-09T04:11:20.913Z,0
2017-09-09T04:12:21.565Z,0
2017-09-09T04:13:22.217Z,0
2017-09-09T04:14:22.870Z,0
2017-09-09T04:15:23.526Z,0
2017-09-09T04:16:24.178Z,0
2017-09-09T04:17:24.829Z,0
2017-09-09T04:18:25.484Z,0
2017-09-09T04:19:26.135Z,0
2017-09-09T04:20:26.794Z,0
2017-09-09T04:21:27.446Z,0
2017-09-09T04:22:28.096Z,0
2017-09-09T04:23:28.751Z,5
2017-09-09T04:24:29.403Z,5
2017-09-09T04:25:30.055Z,5
2017-09-09T04:26:30.710Z,5
2017-09-09T04:27:31.365Z,5
2017-09-09T04:28:32.018Z,5
2017-09-09T04:29:32.678Z,5
2017-09-09T04:30:33.360Z,10
2017-09-09T04:31:34.014Z,10
2017-09-09T04:32:34.677Z,10
2017-09-09T04:33:35.330Z,10
2017-09-09T04:34:36.012Z,10
2017-09-09T04:35:36.669Z,15
2017-09-09T04:36:37.327Z,15
2017-09-09T04:37:37.978Z,15
2017-09-09T04:38:38.632Z,20
2017-09-09T04:39:39.288Z,20
2017-09-09T04:40:39.944Z,20
2017-09-09T04:41:40.605Z,25
2017-09-09T04:42:41.254Z,25
2017-09-09T04:43:41.908Z,25
2017-09-09T04:44:42.563Z,30
2017-09-09T04:45:43.218Z,30
2017-09-09T04:46:43.872Z,35
2017-09-09T04:47:44.526Z,40
2017-09-09T04:48:45.188Z,45
2017-09-09T04:49:45.842Z,50
2017-09-09T04:50:46.496Z,55
2017-09-09T04:51:47.185Z,60
2017-09-09T04:52:47.840Z,65
2017-09-09T04:53:48.499Z,70
2017-09-09T04:54:49.156Z,75
2017-09-09T04:55:49.810Z,80
2017-09-09T04:56:50.468Z,85
2017-09-09T04:57:51.124Z,85
2017-09-09T04:58:51.785Z,85
2017-09-09T04:59:52.438Z,85
2017-09-09T05:00:53.097Z,85
2017-09-09T05:01:53.749Z,85
2017-09-09T05:02:54.410Z,90
2017-09-09T05:03:55.064Z,90
2017-09-09T05:04:55.719Z,90
2017-09-09T05:05:56.374Z,90
2017-09-09T05:06:57.029Z,90
2017-09-09T05:07:57.689Z,90
2017-09-09T05:08:58.343Z,95
2017-09-09T05:09:59.030Z,90
2017-09-09T05:10:59.687Z,90
2017-09-09T05:12:00.345Z,90
2017-09-09T05:13:00.996Z,95
2017-09-09T05:14:01.656Z,95
2017-09-09T05:15:02.312Z,100
2017-09-09T05:16:02.970Z,100
2017-09-09T05:17:03.656Z,105
2017-09-09T05:18:04.314Z,110
2017-09-09T05:19:04.996Z,115
2017-09-09T05:20:05.651Z,120
2017-09-09T05:21:06.310Z,125
2017-09-09T05:22:06.968Z,130
2017-09-09T05:23:07.623Z,130
2017-09-09T05:24:08.284Z,130
2017-09-09T05:25:08.940Z,130
2017-09-09T05:26:09.595Z,125
2017-09-09T05:27:10.260Z,130
2017-09-09T05:28:10.912Z,130
2017-09-09T05:29:11.569Z,135
2017-09-09T05:30:12.229Z,135
2017-09-09T05:31:12.887Z,135
2017-09-09T05:32:13.544Z,135
2017-09-09T05:33:14.201Z,140
2017-09-09T05:34:14.858Z,150
2017-09-09T05:35:15.514Z,160
2017-09-09T05:36:16.174Z,160
2017-09-09T05:37:16.828Z,160
2017-09-09T05:38:17.485Z,150
2017-09-09T05:39:18.145Z,140
2017-09-09T05:40:18.803Z,130
2017-09-09T05:41:19.495Z,125
2017-09-09T05:42:20.147Z,130
2017-09-09T05:43:20.806Z,145
2017-09-09T05:44:21.464Z,160
2017-09-09T05:45:22.121Z,170
2017-09-09T05:46:22.782Z,180
2017-09-09T05:47:23.439Z,180
2017-09-09T05:48:24.099Z,185
2017-09-09T05:49:24.755Z,190
2017-09-09T05:50:25.410Z,195
2017-09-09T05:51:26.069Z,195
2017-09-09T05:52:26.730Z,200
2017-09-09T05:53:27.386Z,205
2017-09-09T05:54:28.039Z,205
2017-09-09T05:55:28.731Z,205
2017-09-09T05:56:29.417Z,205
2017-09-09T05:57:30.071Z,205
2017-09-09T05:58:30.732Z,205
2017-09-09T05:59:31.406Z,205
2017-09-09T06:00:32.045Z,200
2017-09-09T06:01:32.708Z,200
2017-09-09T06:02:33.365Z,205
2017-09-09T06:03:34.022Z,210
2017-09-09T06:04:34.676Z,215
2017-09-09T06:05:35.336Z,215
2017-09-09T06:06:35.994Z,215
2017-09-09T06:07:36.649Z,210
2017-09-09T06:08:37.310Z,210
2017-09-09T06:09:37.966Z,210
2017-09-09T06:10:38.627Z,210
2017-09-09T06:11:39.287Z,215
2017-09-09T06:12:39.974Z,215
2017-09-09T06:13:40.629Z,220
2017-09-09T06:14:41.288Z,220
2017-09-09T06:15:41.946Z,220
2017-09-09T06:16:42.603Z,225
2017-09-09T06:17:43.261Z,225
2017-09-09T06:18:43.919Z,230
2017-09-09T06:19:44.574Z,230
2017-09-09T06:20:45.233Z,230
2017-09-09T06:21:45.901Z,230
2017-09-09T06:22:46.552Z,235
2017-09-09T06:23:47.234Z,240
2017-09-09T06:24:47.896Z,250
2017-09-09T06:25:48.550Z,260
2017-09-09T06:26:49.211Z,275
2017-09-09T06:27:49.870Z,285
2017-09-09T06:28:50.530Z,300
2017-09-09T06:29:51.189Z,310
2017-09-09T06:30:51.844Z,315
2017-09-09T06:31:52.510Z,315
2017-09-09T06:32:53.194Z,315
2017-09-09T06:33:53.884Z,310
2017-09-09T06:34:54.536Z,310
2017-09-09T06:35:55.198Z,315
2017-09-09T06:36:55.858Z,320
2017-09-09T06:37:56.548Z,320
2017-09-09T06:38:57.206Z,330
2017-09-09T06:39:57.888Z,335
2017-09-09T06:40:58.547Z,340
2017-09-09T06:41:59.207Z,350
2017-09-09T06:42:59.896Z,355
2017-09-09T06:44:00.555Z,370
2017-09-09T06:45:01.215Z,380
2017-09-09T06:46:01.869Z,390
2017-09-09T06:47:02.526Z,405
2017-09-09T06:48:03.184Z,415
2017-09-09T06:49:03.846Z,415
2017-09-09T06:50:04.513Z,420
2017-09-09T06:51:05.192Z,420
2017-09-09T06:52:05.849Z,415
2017-09-09T06:53:06.508Z,405
2017-09-09T06:54:07.195Z,390
2017-09-09T06:55:07.882Z,365
2017-09-09T06:56:08.539Z,345
2017-09-09T06:57:09.199Z,340
2017-09-09T06:58:09.854Z,350
2017-09-09T06:59:10.509Z,380
2017-09-09T07:00:11.172Z,405
2017-09-09T07:01:11.831Z,440
2017-09-09T07:02:12.492Z,460
2017-09-09T07:03:13.156Z,480
2017-09-09T07:04:13.811Z,495
2017-09-09T07:05:14.499Z,510
2017-09-09T07:06:15.159Z,510
2017-09-09T07:07:15.824Z,510
2017-09-09T07:08:16.477Z,510
2017-09-09T07:09:17.138Z,510
2017-09-09T07:10:17.798Z,510
2017-09-09T07:11:18.458Z,510
2017-09-09T07:12:19.118Z,515
2017-09-09T07:13:19.779Z,520
2017-09-09T07:14:20.436Z,530
2017-09-09T07:15:21.098Z,545
2017-09-09T07:16:21.758Z,565
2017-09-09T07:17:22.422Z,565
2017-09-09T07:18:23.080Z,560
2017-09-09T07:19:23.742Z,535
2017-09-09T07:20:24.404Z,495
2017-09-09T07:21:25.092Z,480
2017-09-09T07:22:25.750Z,485
2017-09-09T07:23:26.407Z,495
2017-09-09T07:24:27.074Z,500
2017-09-09T07:25:27.761Z,510
2017-09-09T07:26:28.426Z,505
2017-09-09T07:27:29.086Z,505
2017-09-09T07:28:29.742Z,510
2017-09-09T07:29:30.404Z,515
2017-09-09T07:30:31.063Z,505
2017-09-09T07:31:31.724Z,490
2017-09-09T07:32:32.382Z,465
2017-09-09T07:33:33.046Z,450
2017-09-09T07:34:33.707Z,435
2017-09-09T07:35:34.366Z,420
2017-09-09T07:36:35.023Z,415
2017-09-09T07:37:35.686Z,410
2017-09-09T07:38:36.372Z,415
2017-09-09T07:39:37.033Z,425
2017-09-09T07:40:37.750Z,450
2017-09-09T07:41:38.381Z,470
2017-09-09T07:42:39.038Z,475
2017-09-09T07:43:39.700Z,490
2017-09-09T07:44:40.364Z,515
2017-09-09T07:45:41.056Z,555
2017-09-09T07:46:41.714Z,590
2017-09-09T07:47:42.374Z,585
2017-09-09T07:48:43.032Z,570
2017-09-09T07:49:43.693Z,550
2017-09-09T07:50:44.352Z,545
2017-09-09T07:51:45.009Z,550
2017-09-09T07:52:45.677Z,565
2017-09-09T07:53:46.336Z,580
2017-09-09T07:54:46.996Z,595
2017-09-09T07:55:47.654Z,600
2017-09-09T07:56:48.314Z,600
2017-09-09T07:57:48.977Z,600
2017-09-09T07:58:49.633Z,575
2017-09-09T07:59:50.298Z,550
2017-09-09T08:00:50.960Z,510
2017-09-09T08:01:51.620Z,490
2017-09-09T08:02:52.282Z,490
2017-09-09T08:03:52.941Z,510
2017-09-09T08:04:53.602Z,530
2017-09-09T08:05:54.264Z,550
2017-09-09T08:06:54.922Z,570
2017-09-09T08:07:55.583Z,580
2017-09-09T08:08:56.246Z,575
2017-09-09T08:09:56.908Z,565
2017-09-09T08:10:57.569Z,565
2017-09-09T08:11:58.230Z,580
2017-09-09T08:12:58.891Z,600
2017-09-09T08:13:59.552Z,620
2017-09-09T08:15:00.213Z,615
2017-09-09T08:16:00.872Z,625
2017-09-09T08:17:01.532Z,645
2017-09-09T08:18:02.195Z,645
2017-09-09T08:19:02.855Z,630
2017-09-09T08:20:03.514Z,640
2017-09-09T08:21:04.176Z,640
2017-09-09T08:22:04.834Z,635
2017-09-09T08:23:05.507Z,635
2017-09-09T08:24:06.191Z,635
2017-09-09T08:25:06.852Z,630
2017-09-09T08:26:07.520Z,625
2017-09-09T08:27:08.177Z,635
2017-09-09T08:28:08.836Z,640
2017-09-09T08:29:09.497Z,645
2017-09-09T08:30:10.158Z,650
2017-09-09T08:31:10.816Z,630
2017-09-09T08:32:11.481Z,625
2017-09-09T08:33:12.145Z,645
2017-09-09T08:34:12.805Z,675
2017-09-09T08:35:13.506Z,680
2017-09-09T08:36:14.185Z,680
2017-09-09T08:37:14.847Z,675
2017-09-09T08:38:15.509Z,670
2017-09-09T08:39:16.217Z,680
2017-09-09T08:40:16.891Z,710
2017-09-09T08:41:17.553Z,740
2017-09-09T08:42:18.215Z,750
2017-09-09T08:43:18.874Z,735
2017-09-09T08:44:19.537Z,725
2017-09-09T08:45:20.203Z,725
2017-09-09T08:46:20.861Z,725
2017-09-09T08:47:21.524Z,710
2017-09-09T08:48:22.183Z,675
2017-09-09T08:49:22.845Z,660
2017-09-09T08:50:23.506Z,675
2017-09-09T08:51:24.193Z,680
2017-09-09T08:52:24.856Z,675
2017-09-09T08:53:25.512Z,660
2017-09-09T08:54:26.176Z,620
2017-09-09T08:55:26.840Z,580
2017-09-09T08:56:27.498Z,570
2017-09-09T08:57:28.162Z,570
2017-09-09T08:58:28.824Z,585
2017-09-09T08:59:29.484Z,590
2017-09-09T09:00:30.149Z,580
2017-09-09T09:01:30.809Z,570
2017-09-09T09:02:31.473Z,575
2017-09-09T09:03:32.134Z,595
2017-09-09T09:04:32.795Z,630
2017-09-09T09:05:33.455Z,640
2017-09-09T09:06:34.119Z,630
2017-09-09T09:07:34.784Z,630
2017-09-09T09:08:35.443Z,630
2017-09-09T09:09:36.133Z,615
2017-09-09T09:10:36.790Z,615
2017-09-09T09:11:37.455Z,620
2017-09-09T09:12:38.113Z,635
2017-09-09T09:13:38.774Z,665
2017-09-09T09:14:39.437Z,685
2017-09-09T09:15:40.102Z,680
2017-09-09T09:16:40.762Z,645
2017-09-09T09:17:41.422Z,615
2017-09-09T09:18:42.084Z,635
2017-09-09T09:19:42.753Z,665
2017-09-09T09:20:43.404Z,680
2017-09-09T09:21:44.064Z,665
2017-09-09T09:22:44.730Z,635
2017-09-09T09:23:45.389Z,595
2017-09-09T09:24:46.049Z,555
2017-09-09T09:25:46.711Z,530
2017-09-09T09:26:47.370Z,500
2017-09-09T09:27:48.032Z,485
2017-09-09T09:28:48.693Z,475
2017-09-09T09:29:49.355Z,465
2017-09-09T09:30:50.015Z,465
2017-09-09T09:31:50.677Z,465
2017-09-09T09:32:51.340Z,475
2017-09-09T09:33:52.027Z,480
2017-09-09T09:34:52.686Z,480
2017-09-09T09:35:53.349Z,480
2017-09-09T09:36:54.008Z,475
2017-09-09T09:37:54.702Z,465
2017-09-09T09:38:55.360Z,455
2017-09-09T09:39:56.022Z,450
2017-09-09T09:40:56.685Z,450
2017-09-09T09:41:57.372Z,455
2017-09-09T09:42:58.026Z,455
2017-09-09T09:43:58.690Z,460
2017-09-09T09:44:59.401Z,460
2017-09-09T09:46:00.061Z,445
2017-09-09T09:47:00.718Z,430
2017-09-09T09:48:01.378Z,425
2017-09-09T09:49:02.040Z,435
2017-09-09T09:50:02.699Z,435
2017-09-09T09:51:03.361Z,425
2017-09-09T09:52:04.023Z,410
2017-09-09T09:53:04.681Z,415
2017-09-09T09:54:05.341Z,445
2017-09-09T09:55:06.009Z,465
2017-09-09T09:56:06.690Z,455
2017-09-09T09:57:07.349Z,445
2017-09-09T09:58:08.007Z,440
2017-09-09T09:59:08.698Z,430
2017-09-09T10:00:09.355Z,400
2017-09-09T10:01:10.016Z,365
2017-09-09T10:02:10.673Z,350
2017-09-09T10:03:11.332Z,335
2017-09-09T10:04:11.993Z,300
2017-09-09T10:05:12.651Z,285
2017-09-09T10:06:13.307Z,315
2017-09-09T10:07:13.968Z,325
2017-09-09T10:08:14.625Z,350
2017-09-09T10:09:15.284Z,345
2017-09-09T10:10:15.943Z,330
2017-09-09T10:11:16.614Z,335
2017-09-09T10:12:17.292Z,340
2017-09-09T10:13:17.953Z,340
2017-09-09T10:14:18.608Z,345
2017-09-09T10:15:19.268Z,345
2017-09-09T10:16:19.926Z,325
2017-09-09T10:17:20.585Z,315
2017-09-09T10:18:21.238Z,315
2017-09-09T10:19:21.895Z,285
2017-09-09T10:20:22.559Z,285
2017-09-09T10:21:23.219Z,300
2017-09-09T10:22:23.877Z,310
2017-09-09T10:23:24.536Z,335
2017-09-09T10:24:25.199Z,340
2017-09-09T10:25:25.855Z,345
2017-09-09T10:26:26.506Z,330
2017-09-09T10:27:27.169Z,320
2017-09-09T10:28:27.831Z,325
2017-09-09T10:29:28.489Z,350
2017-09-09T10:30:29.146Z,370
2017-09-09T10:31:29.806Z,355
2017-09-09T10:32:30.464Z,330
2017-09-09T10:33:31.122Z,320
2017-09-09T10:34:31.776Z,340
2017-09-09T10:35:32.437Z,340
2017-09-09T10:36:33.095Z,320
2017-09-09T10:37:33.749Z,305
2017-09-09T10:38:34.411Z,325
2017-09-09T10:39:35.067Z,365
2017-09-09T10:40:35.723Z,340
2017-09-09T10:41:36.388Z,300
2017-09-09T10:42:37.041Z,285
2017-09-09T10:43:37.694Z,295
2017-09-09T10:44:38.354Z,320
2017-09-09T10:45:39.026Z,350
2017-09-09T10:46:39.681Z,360
2017-09-09T17:29:08.015Z,25
2017-09-09T17:30:08.669Z,25
2017-09-09T17:31:09.325Z,25
2017-09-09T17:32:09.983Z,20
2017-09-09T17:33:10.637Z,20
2017-09-09T17:34:11.292Z,20
2017-09-09T17:35:11.948Z,20
2017-09-09T17:36:12.599Z,15
2017-09-09T17:37:13.289Z,15
2017-09-09T17:38:13.945Z,15
2017-09-09T17:39:14.597Z,10
2017-09-09T17:40:15.258Z,10
2017-09-09T17:41:15.917Z,10
2017-09-09T17:42:16.568Z,10
2017-09-09T17:43:17.331Z,10
2017-09-09T17:44:17.994Z,5
2017-09-09T17:45:18.646Z,5
2017-09-09T17:46:19.300Z,5
2017-09-09T17:47:19.958Z,5
2017-09-09T17:48:20.608Z,5
2017-09-09T17:49:21.267Z,5
2017-09-09T17:50:21.919Z,0
2017-09-09T17:51:22.574Z,0
2017-09-09T17:52:23.225Z,0
2017-09-09T17:53:23.880Z,0
2017-09-09T17:54:24.535Z,0
2017-09-09T17:55:25.189Z,0
2017-09-09T17:56:25.842Z,0
2017-09-09T17:57:26.500Z,0
2017-09-09T17:58:27.154Z,0
2017-09-09T17:59:27.809Z,0
2017-09-09T18:00:28.458Z,0
2017-09-09T18:01:29.110Z,0
2017-09-09T18:02:29.767Z,0
2017-09-09T18:03:30.448Z,0
2017-09-09T18:04:31.102Z,0
2017-09-09T18:05:31.785Z,0
2017-09-09T18:06:32.471Z,0
2017-09-09T18:07:33.122Z,0
2017-09-09T18:08:33.775Z,0
2017-09-09T18:09:34.480Z,0
2017-09-09T18:10:35.133Z,0
2017-09-09T18:11:35.781Z,0
2017-09-09T18:12:36.438Z,0
2017-09-09T18:13:37.087Z,0
2017-09-09T18:14:37.742Z,0
2017-09-09T18:15:38.396Z,0
2017-09-09T18:16:39.046Z,0
2017-09-09T18:17:39.698Z,0
2017-09-09T18:18:40.353Z,0
2017-09-09T18:19:41.006Z,0
2017-09-09T18:20:41.659Z,0
2017-09-09T18:21:42.312Z,0
2017-09-09T18:22:42.966Z,0
2017-09-09T18:23:43.622Z,0
2017-09-09T18:24:44.271Z,0
2017-09-09T18:25:44.927Z,0
2017-09-09T18:26:45.577Z,0
2017-09-09T18:27:46.232Z,0
2017-09-09T18:28:46.883Z,0
2017-09-09T18:29:47.564Z,0
2017-09-09T18:30:48.214Z,0
2017-09-09T18:31:48.869Z,0
2017-09-09T18:32:49.556Z,0
2017-09-09T18:33:50.205Z,0
2017-09-09T18:34:50.859Z,0
2017-09-09T18:35:51.511Z,0
2017-09-09T18:36:52.167Z,0
2017-09-09T18:37:52.850Z,0
2017-09-09T18:38:53.504Z,0
2017-09-09T18:39:54.159Z,0
2017-09-09T18:40:54.813Z,0
2017-09-09T18:41:55.467Z,0
2017-09-09T18:42:56.118Z,0
2017-09-09T18:43:56.772Z,0
2017-09-09T18:44:57.425Z,0
2017-09-09T18:45:58.078Z,0
2017-09-09T18:46:58.730Z,0
2017-09-09T18:47:59.382Z,0
2017-09-09T18:49:00.033Z,0
2017-09-09T18:50:00.688Z,0
2017-09-09T18:51:01.342Z,0
2017-09-09T18:52:02.028Z,0
2017-09-09T18:53:02.681Z,0
2017-09-09T18:54:03.336Z,0
2017-09-09T18:55:04.020Z,0
2017-09-09T18:56:04.676Z,0
2017-09-09T18:57:05.329Z,0
2017-09-09T18:58:05.985Z,0
2017-09-09T18:59:06.667Z,0
2017-09-09T19:00:07.318Z,0
2017-09-09T19:01:07.970Z,0
2017-09-09T19:02:08.623Z,0
2017-09-09T19:03:09.276Z,0
2017-09-09T19:04:09.932Z,0
2017-09-09T19:05:10.587Z,0
2017-09-09T19:06:11.243Z,0
2017-09-09T19:07:11.894Z,0
2017-09-09T19:08:12.548Z,0
2017-09-09T19:09:13.201Z,0
2017-09-09T19:10:13.856Z,0
2017-09-09T19:11:14.509Z,0
2017-09-09T19:12:15.160Z,0
2017-09-09T19:13:15.812Z,0
2017-09-09T19:14:16.466Z,0
2017-09-09T19:15:17.121Z,0
2017-09-09T19:16:17.772Z,0
2017-09-09T19:17:18.424Z,0
2017-09-09T19:18:19.078Z,0
2017-09-09T19:19:19.733Z,0
2017-09-09T19:20:20.385Z,0
2017-09-09T19:21:21.052Z,0
2017-09-09T19:22:21.692Z,0
2017-09-09T19:23:22.344Z,0
2017-09-09T19:24:23.000Z,0
2017-09-09T19:25:23.654Z,0
2017-09-09T19:26:24.305Z,0
2017-09-09T19:27:24.956Z,0
2017-09-09T19:28:25.608Z,0
2017-09-09T19:29:26.263Z,0
2017-09-09T19:30:26.917Z,0
2017-09-09T19:31:27.568Z,0
2017-09-09T19:32:28.219Z,0
2017-09-09T19:33:28.873Z,0
2017-09-09T19:34:29.524Z,0
2017-09-09T19:35:30.177Z,0
2017-09-09T19:36:30.832Z,0
2017-09-09T19:37:31.482Z,0
2017-09-09T19:38:32.133Z,0
2017-09-09T19:39:32.789Z,0
2017-09-09T19:40:33.443Z,0
2017-09-09T19:41:34.123Z,0
2017-09-09T19:42:34.777Z,0
2017-09-09T19:43:35.433Z,0
2017-09-09T19:44:36.115Z,0
2017-09-09T19:45:36.762Z,0
2017-09-09T19:46:37.418Z,0
2017-09-09T19:47:38.070Z,0
2017-09-09T19:48:38.724Z,0
2017-09-09T19:49:39.376Z,0
2017-09-09T19:50:40.022Z,0
2017-09-09T19:51:40.684Z,0
2017-09-09T19:52:41.334Z,0
2017-09-09T19:53:41.987Z,0
2017-09-09T19:54:42.640Z,0
2017-09-09T19:55:43.293Z,0
2017-09-09T19:56:43.944Z,0
2017-09-09T19:57:44.630Z,0
2017-09-09T19:58:45.283Z,0
2017-09-09T19:59:45.965Z,0
2017-09-09T20:00:46.620Z,0
2017-09-09T20:01:47.272Z,0
2017-09-09T20:02:47.928Z,0
2017-09-09T20:03:48.581Z,0
2017-09-09T20:04:49.236Z,0
2017-09-09T20:05:49.885Z,0
2017-09-09T20:06:50.537Z,0
2017-09-09T20:07:51.191Z,0
2017-09-09T20:08:51.843Z,0
2017-09-09T20:09:52.532Z,0
2017-09-09T20:10:53.182Z,0
2017-09-09T20:11:53.836Z,0
2017-09-09T20:12:54.521Z,0
2017-09-09T20:13:55.176Z,0
2017-09-09T20:14:55.857Z,0
2017-09-09T20:15:56.507Z,0
2017-09-09T20:16:57.188Z,0
2017-09-09T20:17:57.838Z,0
2017-09-09T20:18:58.495Z,0
2017-09-09T20:19:59.147Z,0
2017-09-09T20:20:59.805Z,0
2017-09-09T20:22:00.483Z,0
2017-09-09T20:23:01.138Z,0
2017-09-09T20:24:01.789Z,0
2017-09-09T20:25:02.441Z,0
2017-09-09T20:26:03.093Z,0
2017-09-09T20:27:03.743Z,0
2017-09-09T20:28:04.399Z,0
2017-09-09T20:29:05.048Z,0
2017-09-09T20:30:05.737Z,0
2017-09-09T20:31:06.355Z,0
2017-09-09T20:32:07.008Z,0
2017-09-09T20:33:07.662Z,0
2017-09-09T20:34:08.316Z,0
2017-09-09T20:35:08.967Z,0
2017-09-09T20:36:09.620Z,0
2017-09-09T20:37:10.273Z,0
2017-09-09T20:38:10.925Z,0
2017-09-09T20:39:11.601Z,0
2017-09-09T20:40:12.258Z,0
2017-09-09T20:41:12.912Z,0
2017-09-09T20:42:13.562Z,0
2017-09-09T20:43:14.218Z,0
2017-09-09T20:44:14.868Z,0
2017-09-09T20:45:15.520Z,0
2017-09-09T20:46:16.172Z,0
2017-09-09T20:47:16.858Z,0
2017-09-09T20:48:17.511Z,0
2017-09-09T20:49:18.161Z,0
2017-09-09T20:50:18.815Z,0
2017-09-09T20:51:19.466Z,0
2017-09-09T20:52:20.120Z,0
2017-09-09T20:53:20.768Z,0
2017-09-09T20:54:21.422Z,0
2017-09-09T20:55:22.075Z,0
2017-09-09T20:56:22.724Z,0
2017-09-09T20:57:23.377Z,0
2017-09-09T20:58:24.032Z,0
2017-09-09T20:59:24.688Z,0
2017-09-09T21:00:25.334Z,0
2017-09-09T21:01:25.987Z,0
2017-09-09T21:02:26.642Z,0
2017-09-09T21:03:27.293Z,0
2017-09-09T21:04:27.943Z,0
2017-09-09T21:05:28.595Z,0
2017-09-09T21:06:29.247Z,0
2017-09-09T21:07:29.900Z,0
2017-09-09T21:08:30.551Z,0
2017-09-09T21:09:31.205Z,0
2017-09-09T21:10:31.859Z,0
2017-09-09T21:11:32.516Z,0